sensor_id;sensor_type;location;lat;lon;timestamp;temperature;humidity
25945;SHT31;13742;49.306;8.636;2023-04-03T00:00:43;5.12;67.18
25945;SHT31;13742;49.306;8.636;2023-04-03T00:01:43;5.14;67.88
25945;SHT31;13742;49.306;8.636;2023-04-03T00:02:43;5.11;68.09
25945;SHT31;13742;49.306;8.636;2023-04-03T00:03:43;5.11;67.83
25945;SHT31;13742;49.306;8.636;2023-04-03T00:04:43;5.12;67.61
25945;SHT31;13742;49.306;8.636;2023-04-03T00:05:43;5.08;67.36
25945;SHT31;13742;49.306;8.636;2023-04-03T00:06:43;5.08;67.55
25945;SHT31;13742;49.306;8.636;2023-04-03T00:07:43;5.10;67.82
25945;SHT31;13742;49.306;8.636;2023-04-03T00:08:43;5.02;67.05
25945;SHT31;13742;49.306;8.636;2023-04-03T00:09:43;5.05;67.26
25945;SHT31;13742;49.306;8.636;2023-04-03T00:10:43;5.02;67.13
25945;SHT31;13742;49.306;8.636;2023-04-03T00:11:43;5.02;67.48
25945;SHT31;13742;49.306;8.636;2023-04-03T00:12:43;5.02;67.42
25945;SHT31;13742;49.306;8.636;2023-04-03T00:13:43;5.01;67.50
25945;SHT31;13742;49.306;8.636;2023-04-03T00:14:43;4.94;67.00
25945;SHT31;13742;49.306;8.636;2023-04-03T00:15:43;4.94;67.41
25945;SHT31;13742;49.306;8.636;2023-04-03T00:16:43;4.91;67.24
25945;SHT31;13742;49.306;8.636;2023-04-03T00:17:43;4.91;67.59
25945;SHT31;13742;49.306;8.636;2023-04-03T00:18:43;4.91;68.18
25945;SHT31;13742;49.306;8.636;2023-04-03T00:19:43;4.90;67.50
25945;SHT31;13742;49.306;8.636;2023-04-03T00:20:43;4.91;67.71
25945;SHT31;13742;49.306;8.636;2023-04-03T00:21:43;4.88;67.48
25945;SHT31;13742;49.306;8.636;2023-04-03T00:22:43;4.88;67.67
25945;SHT31;13742;49.306;8.636;2023-04-03T00:23:43;4.81;67.42
25945;SHT31;13742;49.306;8.636;2023-04-03T00:24:43;4.83;68.06
25945;SHT31;13742;49.306;8.636;2023-04-03T00:25:43;4.83;68.01
25945;SHT31;13742;49.306;8.636;2023-04-03T00:26:43;4.79;67.74
25945;SHT31;13742;49.306;8.636;2023-04-03T00:27:43;4.76;67.96
25945;SHT31;13742;49.306;8.636;2023-04-03T00:28:43;4.79;68.14
25945;SHT31;13742;49.306;8.636;2023-04-03T00:29:43;4.74;68.06
25945;SHT31;13742;49.306;8.636;2023-04-03T00:30:43;4.71;68.09
25945;SHT31;13742;49.306;8.636;2023-04-03T00:31:43;4.64;67.84
25945;SHT31;13742;49.306;8.636;2023-04-03T00:32:43;4.69;68.03
25945;SHT31;13742;49.306;8.636;2023-04-03T00:33:43;4.66;67.93
25945;SHT31;13742;49.306;8.636;2023-04-03T00:34:43;4.62;67.53
25945;SHT31;13742;49.306;8.636;2023-04-03T00:35:43;4.59;67.64
25945;SHT31;13742;49.306;8.636;2023-04-03T00:36:43;4.60;67.66
25945;SHT31;13742;49.306;8.636;2023-04-03T00:37:43;4.63;67.99
25945;SHT31;13742;49.306;8.636;2023-04-03T00:38:43;4.62;68.17
25945;SHT31;13742;49.306;8.636;2023-04-03T00:39:43;4.62;68.25
25945;SHT31;13742;49.306;8.636;2023-04-03T00:40:45;4.60;68.15
25945;SHT31;13742;49.306;8.636;2023-04-03T00:41:43;4.63;68.25
25945;SHT31;13742;49.306;8.636;2023-04-03T00:42:44;4.63;68.13
25945;SHT31;13742;49.306;8.636;2023-04-03T00:43:43;4.53;68.06
25945;SHT31;13742;49.306;8.636;2023-04-03T00:45:48;4.53;67.98
25945;SHT31;13742;49.306;8.636;2023-04-03T00:46:43;4.53;68.03
25945;SHT31;13742;49.306;8.636;2023-04-03T00:47:43;4.48;68.13
25945;SHT31;13742;49.306;8.636;2023-04-03T00:48:47;4.48;68.00
25945;SHT31;13742;49.306;8.636;2023-04-03T00:49:43;4.50;68.15
25945;SHT31;13742;49.306;8.636;2023-04-03T00:50:43;4.49;68.15
25945;SHT31;13742;49.306;8.636;2023-04-03T00:51:43;4.48;68.00
25945;SHT31;13742;49.306;8.636;2023-04-03T00:52:43;4.45;68.06
25945;SHT31;13742;49.306;8.636;2023-04-03T00:53:47;4.40;67.67
25945;SHT31;13742;49.306;8.636;2023-04-03T00:54:43;4.42;67.93
25945;SHT31;13742;49.306;8.636;2023-04-03T00:55:43;4.45;67.94
25945;SHT31;13742;49.306;8.636;2023-04-03T00:56:43;4.42;67.80
25945;SHT31;13742;49.306;8.636;2023-04-03T00:57:44;4.40;67.43
25945;SHT31;13742;49.306;8.636;2023-04-03T00:58:48;4.37;67.73
25945;SHT31;13742;49.306;8.636;2023-04-03T00:59:48;4.36;67.66
25945;SHT31;13742;49.306;8.636;2023-04-03T01:00:48;4.36;67.53
25945;SHT31;13742;49.306;8.636;2023-04-03T01:01:43;4.35;67.70
25945;SHT31;13742;49.306;8.636;2023-04-03T01:02:43;4.35;67.94
25945;SHT31;13742;49.306;8.636;2023-04-03T01:03:43;4.36;67.83
25945;SHT31;13742;49.306;8.636;2023-04-03T01:04:43;4.36;67.93
25945;SHT31;13742;49.306;8.636;2023-04-03T01:05:43;4.33;67.62
25945;SHT31;13742;49.306;8.636;2023-04-03T01:06:43;4.35;67.72
25945;SHT31;13742;49.306;8.636;2023-04-03T01:07:43;4.29;67.99
25945;SHT31;13742;49.306;8.636;2023-04-03T01:08:43;4.26;67.91
25945;SHT31;13742;49.306;8.636;2023-04-03T01:09:44;4.28;67.68
25945;SHT31;13742;49.306;8.636;2023-04-03T01:10:43;4.33;68.04
25945;SHT31;13742;49.306;8.636;2023-04-03T01:11:43;4.35;67.94
25945;SHT31;13742;49.306;8.636;2023-04-03T01:12:44;4.30;68.12
25945;SHT31;13742;49.306;8.636;2023-04-03T01:13:43;4.32;67.71
25945;SHT31;13742;49.306;8.636;2023-04-03T01:14:49;4.36;68.11
25945;SHT31;13742;49.306;8.636;2023-04-03T01:15:43;4.39;67.85
25945;SHT31;13742;49.306;8.636;2023-04-03T01:16:43;4.36;68.21
25945;SHT31;13742;49.306;8.636;2023-04-03T01:17:51;4.36;67.82
25945;SHT31;13742;49.306;8.636;2023-04-03T01:18:43;4.35;68.18
25945;SHT31;13742;49.306;8.636;2023-04-03T01:19:47;4.33;68.45
25945;SHT31;13742;49.306;8.636;2023-04-03T01:24:43;4.26;68.22
25945;SHT31;13742;49.306;8.636;2023-04-03T01:25:46;4.32;68.32
25945;SHT31;13742;49.306;8.636;2023-04-03T01:26:43;4.28;68.17
25945;SHT31;13742;49.306;8.636;2023-04-03T01:27:43;4.29;68.33
25945;SHT31;13742;49.306;8.636;2023-04-03T01:28:43;4.29;68.43
25945;SHT31;13742;49.306;8.636;2023-04-03T01:29:43;4.25;68.41
25945;SHT31;13742;49.306;8.636;2023-04-03T01:30:49;4.23;68.48
25945;SHT31;13742;49.306;8.636;2023-04-03T01:32:43;4.18;68.28
25945;SHT31;13742;49.306;8.636;2023-04-03T01:33:43;4.16;68.55
25945;SHT31;13742;49.306;8.636;2023-04-03T01:34:43;4.23;68.85
25945;SHT31;13742;49.306;8.636;2023-04-03T01:35:43;4.25;68.60
25945;SHT31;13742;49.306;8.636;2023-04-03T01:36:43;4.19;68.62
25945;SHT31;13742;49.306;8.636;2023-04-03T01:37:43;4.16;68.30
25945;SHT31;13742;49.306;8.636;2023-04-03T01:38:43;4.15;68.45
25945;SHT31;13742;49.306;8.636;2023-04-03T01:39:43;4.18;68.57
25945;SHT31;13742;49.306;8.636;2023-04-03T01:40:43;4.12;68.49
25945;SHT31;13742;49.306;8.636;2023-04-03T01:41:43;4.09;68.28
25945;SHT31;13742;49.306;8.636;2023-04-03T01:42:43;4.11;68.50
25945;SHT31;13742;49.306;8.636;2023-04-03T01:43:43;4.11;68.44
25945;SHT31;13742;49.306;8.636;2023-04-03T01:44:43;4.13;68.71
25945;SHT31;13742;49.306;8.636;2023-04-03T01:45:43;4.12;68.53
25945;SHT31;13742;49.306;8.636;2023-04-03T01:46:43;4.13;68.87
25945;SHT31;13742;49.306;8.636;2023-04-03T01:47:43;4.13;68.83
25945;SHT31;13742;49.306;8.636;2023-04-03T01:48:43;4.11;68.87
25945;SHT31;13742;49.306;8.636;2023-04-03T01:49:43;4.12;68.71
25945;SHT31;13742;49.306;8.636;2023-04-03T01:50:43;4.08;68.58
25945;SHT31;13742;49.306;8.636;2023-04-03T01:51:43;4.11;68.68
25945;SHT31;13742;49.306;8.636;2023-04-03T01:52:43;4.09;68.77
25945;SHT31;13742;49.306;8.636;2023-04-03T01:53:43;4.05;68.47
25945;SHT31;13742;49.306;8.636;2023-04-03T01:54:43;4.06;68.55
25945;SHT31;13742;49.306;8.636;2023-04-03T01:55:43;4.08;68.65
25945;SHT31;13742;49.306;8.636;2023-04-03T01:56:43;4.06;68.44
25945;SHT31;13742;49.306;8.636;2023-04-03T01:57:43;4.04;68.60
25945;SHT31;13742;49.306;8.636;2023-04-03T01:58:43;4.04;68.44
25945;SHT31;13742;49.306;8.636;2023-04-03T01:59:43;3.95;68.24
25945;SHT31;13742;49.306;8.636;2023-04-03T02:00:43;3.98;68.46
25945;SHT31;13742;49.306;8.636;2023-04-03T02:01:45;3.98;68.25
25945;SHT31;13742;49.306;8.636;2023-04-03T02:02:42;3.92;68.26
25945;SHT31;13742;49.306;8.636;2023-04-03T02:03:42;4.00;68.42
25945;SHT31;13742;49.306;8.636;2023-04-03T02:04:42;3.94;68.30
25945;SHT31;13742;49.306;8.636;2023-04-03T02:05:43;3.94;68.54
25945;SHT31;13742;49.306;8.636;2023-04-03T02:06:43;3.97;68.41
25945;SHT31;13742;49.306;8.636;2023-04-03T02:07:43;3.97;68.65
25945;SHT31;13742;49.306;8.636;2023-04-03T02:08:42;3.95;68.20
25945;SHT31;13742;49.306;8.636;2023-04-03T02:09:43;3.95;68.32
25945;SHT31;13742;49.306;8.636;2023-04-03T02:10:43;4.00;68.81
25945;SHT31;13742;49.306;8.636;2023-04-03T02:11:43;4.01;68.74
25945;SHT31;13742;49.306;8.636;2023-04-03T02:12:42;4.02;69.02
25945;SHT31;13742;49.306;8.636;2023-04-03T02:13:42;4.01;68.82
25945;SHT31;13742;49.306;8.636;2023-04-03T02:14:42;4.02;69.03
25945;SHT31;13742;49.306;8.636;2023-04-03T02:15:43;4.01;68.81
25945;SHT31;13742;49.306;8.636;2023-04-03T02:16:42;4.00;68.74
25945;SHT31;13742;49.306;8.636;2023-04-03T02:17:43;4.00;68.82
25945;SHT31;13742;49.306;8.636;2023-04-03T02:18:42;3.98;69.18
25945;SHT31;13742;49.306;8.636;2023-04-03T02:19:43;4.00;69.03
25945;SHT31;13742;49.306;8.636;2023-04-03T02:20:43;4.00;69.12
25945;SHT31;13742;49.306;8.636;2023-04-03T02:21:42;4.01;69.12
25945;SHT31;13742;49.306;8.636;2023-04-03T02:22:43;4.06;68.97
25945;SHT31;13742;49.306;8.636;2023-04-03T02:23:43;4.01;68.72
25945;SHT31;13742;49.306;8.636;2023-04-03T02:24:43;4.01;68.85
25945;SHT31;13742;49.306;8.636;2023-04-03T02:25:42;3.97;68.60
25945;SHT31;13742;49.306;8.636;2023-04-03T02:26:42;4.01;69.02
25945;SHT31;13742;49.306;8.636;2023-04-03T02:27:42;4.01;68.78
25945;SHT31;13742;49.306;8.636;2023-04-03T02:28:43;4.01;69.00
25945;SHT31;13742;49.306;8.636;2023-04-03T02:29:43;4.04;69.15
25945;SHT31;13742;49.306;8.636;2023-04-03T02:30:43;4.05;69.14
25945;SHT31;13742;49.306;8.636;2023-04-03T02:31:42;4.04;69.03
25945;SHT31;13742;49.306;8.636;2023-04-03T02:32:43;4.05;68.92
25945;SHT31;13742;49.306;8.636;2023-04-03T02:33:43;3.97;69.05
25945;SHT31;13742;49.306;8.636;2023-04-03T02:34:43;3.98;69.16
25945;SHT31;13742;49.306;8.636;2023-04-03T02:35:42;4.01;69.35
25945;SHT31;13742;49.306;8.636;2023-04-03T02:36:43;4.00;69.15
25945;SHT31;13742;49.306;8.636;2023-04-03T02:37:42;4.01;69.26
25945;SHT31;13742;49.306;8.636;2023-04-03T02:38:43;4.00;69.07
25945;SHT31;13742;49.306;8.636;2023-04-03T02:39:42;4.01;69.41
25945;SHT31;13742;49.306;8.636;2023-04-03T02:40:42;3.94;69.36
25945;SHT31;13742;49.306;8.636;2023-04-03T02:41:42;3.97;69.36
25945;SHT31;13742;49.306;8.636;2023-04-03T02:42:42;3.97;69.65
25945;SHT31;13742;49.306;8.636;2023-04-03T02:43:42;4.02;69.92
25945;SHT31;13742;49.306;8.636;2023-04-03T02:44:43;3.97;69.09
25945;SHT31;13742;49.306;8.636;2023-04-03T02:45:43;3.98;69.21
25945;SHT31;13742;49.306;8.636;2023-04-03T02:46:42;3.98;69.58
25945;SHT31;13742;49.306;8.636;2023-04-03T02:47:42;4.00;69.47
25945;SHT31;13742;49.306;8.636;2023-04-03T02:48:42;3.98;69.51
25945;SHT31;13742;49.306;8.636;2023-04-03T02:49:46;3.98;69.46
25945;SHT31;13742;49.306;8.636;2023-04-03T02:50:42;3.92;69.56
25945;SHT31;13742;49.306;8.636;2023-04-03T02:51:43;3.92;69.02
25945;SHT31;13742;49.306;8.636;2023-04-03T02:52:42;3.91;69.08
25945;SHT31;13742;49.306;8.636;2023-04-03T02:53:43;3.91;69.02
25945;SHT31;13742;49.306;8.636;2023-04-03T02:54:42;3.90;69.03
25945;SHT31;13742;49.306;8.636;2023-04-03T02:55:43;3.88;69.01
25945;SHT31;13742;49.306;8.636;2023-04-03T02:56:42;3.91;69.15
25945;SHT31;13742;49.306;8.636;2023-04-03T02:57:42;3.88;68.88
25945;SHT31;13742;49.306;8.636;2023-04-03T02:58:43;3.87;69.08
25945;SHT31;13742;49.306;8.636;2023-04-03T02:59:44;3.88;69.03
25945;SHT31;13742;49.306;8.636;2023-04-03T03:00:43;3.88;69.04
25945;SHT31;13742;49.306;8.636;2023-04-03T03:01:43;3.88;68.93
25945;SHT31;13742;49.306;8.636;2023-04-03T03:02:43;3.85;68.77
25945;SHT31;13742;49.306;8.636;2023-04-03T03:03:43;3.87;68.73
25945;SHT31;13742;49.306;8.636;2023-04-03T03:04:43;3.85;69.07
25945;SHT31;13742;49.306;8.636;2023-04-03T03:05:42;3.87;69.24
25945;SHT31;13742;49.306;8.636;2023-04-03T03:06:42;3.87;69.14
25945;SHT31;13742;49.306;8.636;2023-04-03T03:07:43;3.87;68.84
25945;SHT31;13742;49.306;8.636;2023-04-03T03:08:43;3.82;68.56
25945;SHT31;13742;49.306;8.636;2023-04-03T03:09:42;3.85;68.68
25945;SHT31;13742;49.306;8.636;2023-04-03T03:10:44;3.85;68.41
25945;SHT31;13742;49.306;8.636;2023-04-03T03:11:42;3.87;68.54
25945;SHT31;13742;49.306;8.636;2023-04-03T03:12:42;3.91;68.85
25945;SHT31;13742;49.306;8.636;2023-04-03T03:13:43;3.88;68.49
25945;SHT31;13742;49.306;8.636;2023-04-03T03:14:42;3.92;68.04
25945;SHT31;13742;49.306;8.636;2023-04-03T03:15:42;3.91;68.15
25945;SHT31;13742;49.306;8.636;2023-04-03T03:16:42;3.94;68.04
25945;SHT31;13742;49.306;8.636;2023-04-03T03:17:43;3.94;68.19
25945;SHT31;13742;49.306;8.636;2023-04-03T03:18:43;3.95;68.37
25945;SHT31;13742;49.306;8.636;2023-04-03T03:19:43;3.95;68.41
25945;SHT31;13742;49.306;8.636;2023-04-03T03:20:43;3.97;68.03
25945;SHT31;13742;49.306;8.636;2023-04-03T03:21:42;4.00;68.17
25945;SHT31;13742;49.306;8.636;2023-04-03T03:22:43;4.02;68.40
25945;SHT31;13742;49.306;8.636;2023-04-03T03:23:42;4.01;68.18
25945;SHT31;13742;49.306;8.636;2023-04-03T03:24:42;4.04;67.66
25945;SHT31;13742;49.306;8.636;2023-04-03T03:25:42;4.04;67.36
25945;SHT31;13742;49.306;8.636;2023-04-03T03:26:42;4.05;67.83
25945;SHT31;13742;49.306;8.636;2023-04-03T03:27:42;4.06;68.11
25945;SHT31;13742;49.306;8.636;2023-04-03T03:28:42;4.05;68.33
25945;SHT31;13742;49.306;8.636;2023-04-03T03:29:43;4.08;68.57
25945;SHT31;13742;49.306;8.636;2023-04-03T03:30:42;4.08;68.46
25945;SHT31;13742;49.306;8.636;2023-04-03T03:31:42;4.09;68.48
25945;SHT31;13742;49.306;8.636;2023-04-03T03:32:42;4.09;68.07
25945;SHT31;13742;49.306;8.636;2023-04-03T03:33:43;4.11;67.78
25945;SHT31;13742;49.306;8.636;2023-04-03T03:34:42;4.13;68.26
25945;SHT31;13742;49.306;8.636;2023-04-03T03:35:43;4.15;68.06
25945;SHT31;13742;49.306;8.636;2023-04-03T03:36:42;4.12;67.75
25945;SHT31;13742;49.306;8.636;2023-04-03T03:37:42;4.11;67.57
25945;SHT31;13742;49.306;8.636;2023-04-03T03:38:42;4.06;67.61
25945;SHT31;13742;49.306;8.636;2023-04-03T03:39:42;4.08;67.80
25945;SHT31;13742;49.306;8.636;2023-04-03T03:40:42;4.08;67.80
25945;SHT31;13742;49.306;8.636;2023-04-03T03:41:42;4.06;67.97
25945;SHT31;13742;49.306;8.636;2023-04-03T03:42:42;4.05;67.94
25945;SHT31;13742;49.306;8.636;2023-04-03T03:43:42;4.05;68.17
25945;SHT31;13742;49.306;8.636;2023-04-03T03:44:42;4.05;67.81
25945;SHT31;13742;49.306;8.636;2023-04-03T03:45:43;4.02;68.06
25945;SHT31;13742;49.306;8.636;2023-04-03T03:46:42;4.04;68.44
25945;SHT31;13742;49.306;8.636;2023-04-03T03:47:42;4.08;68.45
25945;SHT31;13742;49.306;8.636;2023-04-03T03:48:42;4.04;68.22
25945;SHT31;13742;49.306;8.636;2023-04-03T03:49:42;4.04;68.16
25945;SHT31;13742;49.306;8.636;2023-04-03T03:50:43;3.98;67.94
25945;SHT31;13742;49.306;8.636;2023-04-03T03:51:42;3.92;67.76
25945;SHT31;13742;49.306;8.636;2023-04-03T03:52:43;3.94;68.18
25945;SHT31;13742;49.306;8.636;2023-04-03T03:53:42;3.92;68.10
25945;SHT31;13742;49.306;8.636;2023-04-03T03:54:42;3.88;68.20
25945;SHT31;13742;49.306;8.636;2023-04-03T03:55:42;3.90;68.47
25945;SHT31;13742;49.306;8.636;2023-04-03T03:56:42;3.91;68.87
25945;SHT31;13742;49.306;8.636;2023-04-03T03:57:42;3.95;69.00
25945;SHT31;13742;49.306;8.636;2023-04-03T03:58:42;3.92;68.26
25945;SHT31;13742;49.306;8.636;2023-04-03T03:59:44;3.90;68.37
25945;SHT31;13742;49.306;8.636;2023-04-03T04:00:42;3.82;68.20
25945;SHT31;13742;49.306;8.636;2023-04-03T04:01:42;3.84;68.58
25945;SHT31;13742;49.306;8.636;2023-04-03T04:02:43;3.85;68.65
25945;SHT31;13742;49.306;8.636;2023-04-03T04:03:42;3.85;68.64
25945;SHT31;13742;49.306;8.636;2023-04-03T04:04:42;3.85;68.82
25945;SHT31;13742;49.306;8.636;2023-04-03T04:05:43;3.80;68.78
25945;SHT31;13742;49.306;8.636;2023-04-03T04:06:43;3.78;68.94
25945;SHT31;13742;49.306;8.636;2023-04-03T04:07:42;3.80;69.09
25945;SHT31;13742;49.306;8.636;2023-04-03T04:08:43;3.82;69.21
25945;SHT31;13742;49.306;8.636;2023-04-03T04:09:42;3.80;69.06
25945;SHT31;13742;49.306;8.636;2023-04-03T04:10:42;3.74;69.38
25945;SHT31;13742;49.306;8.636;2023-04-03T04:11:42;3.77;69.45
25945;SHT31;13742;49.306;8.636;2023-04-03T04:12:42;3.80;69.40
25945;SHT31;13742;49.306;8.636;2023-04-03T04:13:42;3.78;69.64
25945;SHT31;13742;49.306;8.636;2023-04-03T04:14:42;3.82;69.68
25945;SHT31;13742;49.306;8.636;2023-04-03T04:15:43;3.82;69.38
25945;SHT31;13742;49.306;8.636;2023-04-03T04:16:42;3.81;69.54
25945;SHT31;13742;49.306;8.636;2023-04-03T04:17:42;3.82;69.55
25945;SHT31;13742;49.306;8.636;2023-04-03T04:18:42;3.82;69.68
25945;SHT31;13742;49.306;8.636;2023-04-03T04:19:42;3.84;69.84
25945;SHT31;13742;49.306;8.636;2023-04-03T04:20:45;3.84;69.94
25945;SHT31;13742;49.306;8.636;2023-04-03T04:21:42;3.85;69.87
25945;SHT31;13742;49.306;8.636;2023-04-03T04:22:42;3.85;69.94
25945;SHT31;13742;49.306;8.636;2023-04-03T04:23:42;3.85;69.88
25945;SHT31;13742;49.306;8.636;2023-04-03T04:24:42;3.88;70.04
25945;SHT31;13742;49.306;8.636;2023-04-03T04:25:46;3.87;69.99
25945;SHT31;13742;49.306;8.636;2023-04-03T04:26:42;3.87;69.97
25945;SHT31;13742;49.306;8.636;2023-04-03T04:27:42;3.85;69.98
25945;SHT31;13742;49.306;8.636;2023-04-03T04:28:42;3.81;69.99
25945;SHT31;13742;49.306;8.636;2023-04-03T04:29:42;3.80;70.22
25945;SHT31;13742;49.306;8.636;2023-04-03T04:30:43;3.80;70.32
25945;SHT31;13742;49.306;8.636;2023-04-03T04:31:42;3.56;70.32
25945;SHT31;13742;49.306;8.636;2023-04-03T04:32:42;3.50;70.99
25945;SHT31;13742;49.306;8.636;2023-04-03T04:33:42;3.57;71.24
25945;SHT31;13742;49.306;8.636;2023-04-03T04:34:42;3.61;71.15
25945;SHT31;13742;49.306;8.636;2023-04-03T04:35:43;3.60;71.21
25945;SHT31;13742;49.306;8.636;2023-04-03T04:36:42;3.57;70.96
25945;SHT31;13742;49.306;8.636;2023-04-03T04:37:42;3.54;70.88
25945;SHT31;13742;49.306;8.636;2023-04-03T04:38:42;3.54;71.17
25945;SHT31;13742;49.306;8.636;2023-04-03T04:39:42;3.57;71.43
25945;SHT31;13742;49.306;8.636;2023-04-03T04:40:42;3.57;71.58
25945;SHT31;13742;49.306;8.636;2023-04-03T04:41:42;3.57;71.31
25945;SHT31;13742;49.306;8.636;2023-04-03T04:42:42;3.63;71.58
25945;SHT31;13742;49.306;8.636;2023-04-03T04:43:42;3.63;71.81
25945;SHT31;13742;49.306;8.636;2023-04-03T04:44:42;3.60;71.47
25945;SHT31;13742;49.306;8.636;2023-04-03T04:45:42;3.64;71.64
25945;SHT31;13742;49.306;8.636;2023-04-03T04:46:42;3.57;71.21
25945;SHT31;13742;49.306;8.636;2023-04-03T04:47:42;3.61;71.55
25945;SHT31;13742;49.306;8.636;2023-04-03T04:48:43;3.61;71.22
25945;SHT31;13742;49.306;8.636;2023-04-03T04:49:42;3.53;71.43
25945;SHT31;13742;49.306;8.636;2023-04-03T04:50:42;3.56;71.82
25945;SHT31;13742;49.306;8.636;2023-04-03T04:51:42;3.54;71.59
25945;SHT31;13742;49.306;8.636;2023-04-03T04:52:42;3.56;71.84
25945;SHT31;13742;49.306;8.636;2023-04-03T04:53:43;3.59;72.09
25945;SHT31;13742;49.306;8.636;2023-04-03T04:54:42;3.50;71.56
25945;SHT31;13742;49.306;8.636;2023-04-03T04:55:42;3.54;71.68
25945;SHT31;13742;49.306;8.636;2023-04-03T04:56:42;3.53;71.74
25945;SHT31;13742;49.306;8.636;2023-04-03T04:57:42;3.54;71.78
25945;SHT31;13742;49.306;8.636;2023-04-03T04:58:42;3.54;71.55
25945;SHT31;13742;49.306;8.636;2023-04-03T04:59:42;3.51;71.59
25945;SHT31;13742;49.306;8.636;2023-04-03T05:00:42;3.53;71.87
25945;SHT31;13742;49.306;8.636;2023-04-03T05:01:42;3.54;72.11
25945;SHT31;13742;49.306;8.636;2023-04-03T05:02:42;3.56;72.25
25945;SHT31;13742;49.306;8.636;2023-04-03T05:03:43;3.56;72.39
25945;SHT31;13742;49.306;8.636;2023-04-03T05:04:42;3.54;72.03
25945;SHT31;13742;49.306;8.636;2023-04-03T05:05:42;3.57;72.13
25945;SHT31;13742;49.306;8.636;2023-04-03T05:06:42;3.60;72.08
25945;SHT31;13742;49.306;8.636;2023-04-03T05:07:42;3.59;72.05
25945;SHT31;13742;49.306;8.636;2023-04-03T05:08:42;3.60;71.95
25945;SHT31;13742;49.306;8.636;2023-04-03T05:09:42;3.57;72.18
25945;SHT31;13742;49.306;8.636;2023-04-03T05:10:44;3.63;72.34
25945;SHT31;13742;49.306;8.636;2023-04-03T05:11:43;3.60;72.17
25945;SHT31;13742;49.306;8.636;2023-04-03T05:12:42;3.60;72.09
25945;SHT31;13742;49.306;8.636;2023-04-03T05:13:42;3.57;71.98
25945;SHT31;13742;49.306;8.636;2023-04-03T05:14:42;3.57;72.03
25945;SHT31;13742;49.306;8.636;2023-04-03T05:15:42;3.57;72.30
25945;SHT31;13742;49.306;8.636;2023-04-03T05:16:42;3.60;72.25
25945;SHT31;13742;49.306;8.636;2023-04-03T05:17:42;3.60;72.76
25945;SHT31;13742;49.306;8.636;2023-04-03T05:18:42;3.60;72.81
25945;SHT31;13742;49.306;8.636;2023-04-03T05:19:42;3.61;72.83
25945;SHT31;13742;49.306;8.636;2023-04-03T05:20:43;3.64;72.84
25945;SHT31;13742;49.306;8.636;2023-04-03T05:21:42;3.64;72.80
25945;SHT31;13742;49.306;8.636;2023-04-03T05:22:42;3.69;72.84
25945;SHT31;13742;49.306;8.636;2023-04-03T05:23:42;3.66;72.75
25945;SHT31;13742;49.306;8.636;2023-04-03T05:24:42;3.69;72.81
25945;SHT31;13742;49.306;8.636;2023-04-03T05:25:45;3.69;72.84
25945;SHT31;13742;49.306;8.636;2023-04-03T05:26:43;3.70;73.08
25945;SHT31;13742;49.306;8.636;2023-04-03T05:27:42;3.70;73.06
25945;SHT31;13742;49.306;8.636;2023-04-03T05:28:42;3.73;73.09
25945;SHT31;13742;49.306;8.636;2023-04-03T05:29:43;3.71;72.85
25945;SHT31;13742;49.306;8.636;2023-04-03T05:30:42;3.70;72.58
25945;SHT31;13742;49.306;8.636;2023-04-03T05:31:42;3.67;72.57
25945;SHT31;13742;49.306;8.636;2023-04-03T05:32:42;3.69;72.81
25945;SHT31;13742;49.306;8.636;2023-04-03T05:33:42;3.69;72.66
25945;SHT31;13742;49.306;8.636;2023-04-03T05:34:42;3.70;72.92
25945;SHT31;13742;49.306;8.636;2023-04-03T05:35:44;3.70;73.03
25945;SHT31;13742;49.306;8.636;2023-04-03T05:36:42;3.69;72.92
25945;SHT31;13742;49.306;8.636;2023-04-03T05:37:42;3.67;72.92
25945;SHT31;13742;49.306;8.636;2023-04-03T05:38:42;3.70;73.25
25945;SHT31;13742;49.306;8.636;2023-04-03T05:39:43;3.67;73.20
25945;SHT31;13742;49.306;8.636;2023-04-03T05:40:42;3.64;72.56
25945;SHT31;13742;49.306;8.636;2023-04-03T05:41:42;3.64;72.58
25945;SHT31;13742;49.306;8.636;2023-04-03T05:42:42;3.60;72.65
25945;SHT31;13742;49.306;8.636;2023-04-03T05:43:42;3.59;72.73
25945;SHT31;13742;49.306;8.636;2023-04-03T05:44:42;3.59;73.13
25945;SHT31;13742;49.306;8.636;2023-04-03T05:45:43;3.60;72.94
25945;SHT31;13742;49.306;8.636;2023-04-03T05:46:42;3.64;73.10
25945;SHT31;13742;49.306;8.636;2023-04-03T05:47:42;3.63;72.91
25945;SHT31;13742;49.306;8.636;2023-04-03T05:48:43;3.66;73.17
25945;SHT31;13742;49.306;8.636;2023-04-03T05:49:44;3.67;73.78
25945;SHT31;13742;49.306;8.636;2023-04-03T05:50:43;3.67;73.85
25945;SHT31;13742;49.306;8.636;2023-04-03T05:51:43;3.71;73.84
25945;SHT31;13742;49.306;8.636;2023-04-03T05:52:45;3.73;73.60
25945;SHT31;13742;49.306;8.636;2023-04-03T05:53:43;3.73;73.41
25945;SHT31;13742;49.306;8.636;2023-04-03T05:54:43;3.74;73.33
25945;SHT31;13742;49.306;8.636;2023-04-03T05:55:42;3.77;73.30
25945;SHT31;13742;49.306;8.636;2023-04-03T05:56:42;3.77;73.37
25945;SHT31;13742;49.306;8.636;2023-04-03T05:57:42;3.78;73.54
25945;SHT31;13742;49.306;8.636;2023-04-03T05:58:42;3.81;73.51
25945;SHT31;13742;49.306;8.636;2023-04-03T05:59:43;3.81;73.51
25945;SHT31;13742;49.306;8.636;2023-04-03T06:00:42;3.84;73.65
25945;SHT31;13742;49.306;8.636;2023-04-03T06:01:42;3.85;73.50
25945;SHT31;13742;49.306;8.636;2023-04-03T06:02:43;3.85;73.39
25945;SHT31;13742;49.306;8.636;2023-04-03T06:03:42;3.87;73.53
25945;SHT31;13742;49.306;8.636;2023-04-03T06:04:43;3.90;73.84
25945;SHT31;13742;49.306;8.636;2023-04-03T06:05:42;3.90;73.56
25945;SHT31;13742;49.306;8.636;2023-04-03T06:06:52;3.90;73.20
25945;SHT31;13742;49.306;8.636;2023-04-03T06:07:43;3.87;72.75
25945;SHT31;13742;49.306;8.636;2023-04-03T06:08:43;3.88;72.88
25945;SHT31;13742;49.306;8.636;2023-04-03T06:09:43;3.91;73.06
25945;SHT31;13742;49.306;8.636;2023-04-03T06:10:42;3.91;73.50
25945;SHT31;13742;49.306;8.636;2023-04-03T06:11:42;3.94;73.34
25945;SHT31;13742;49.306;8.636;2023-04-03T06:12:42;3.97;73.35
25945;SHT31;13742;49.306;8.636;2023-04-03T06:13:42;3.98;73.20
25945;SHT31;13742;49.306;8.636;2023-04-03T06:14:43;4.00;73.10
25945;SHT31;13742;49.306;8.636;2023-04-03T06:15:42;4.00;72.70
25945;SHT31;13742;49.306;8.636;2023-04-03T06:16:43;4.00;72.63
25945;SHT31;13742;49.306;8.636;2023-04-03T06:17:43;4.04;72.42
25945;SHT31;13742;49.306;8.636;2023-04-03T06:18:42;4.05;72.43
25945;SHT31;13742;49.306;8.636;2023-04-03T06:19:42;3.85;71.74
25945;SHT31;13742;49.306;8.636;2023-04-03T06:20:42;3.91;72.33
25945;SHT31;13742;49.306;8.636;2023-04-03T06:21:42;3.94;72.37
25945;SHT31;13742;49.306;8.636;2023-04-03T06:22:42;3.98;72.38
25945;SHT31;13742;49.306;8.636;2023-04-03T06:23:42;4.01;72.38
25945;SHT31;13742;49.306;8.636;2023-04-03T06:24:43;4.02;72.38
25945;SHT31;13742;49.306;8.636;2023-04-03T06:25:42;4.00;71.75
25945;SHT31;13742;49.306;8.636;2023-04-03T06:26:43;4.01;71.93
25945;SHT31;13742;49.306;8.636;2023-04-03T06:27:42;4.05;72.03
25945;SHT31;13742;49.306;8.636;2023-04-03T06:28:42;4.05;72.21
25945;SHT31;13742;49.306;8.636;2023-04-03T06:29:43;4.09;72.22
25945;SHT31;13742;49.306;8.636;2023-04-03T06:30:42;4.12;71.97